Time;durP1;ratioP1;P1;durP2;ratioP2;P2;SDS_P1;SDS_P2;PMS_P1;PMS_P2;Temp;Humidity;BMP_temperature;BMP_pressure;BME280_temperature;BME280_humidity;BME280_pressure;Samples;Min_cycle;Max_cycle;Signal;HPM_P1;HPM_P2
2024/01/13 00:00:33;;;;;;;1.20;1.20;;;;;;;-3.70;89.87;99733.59;4923473;29;20048;-91
2024/01/13 00:03:00;;;;;;;1.30;1.30;;;;;;;-3.72;90.07;99739.44;4922705;29;20047;-91
2024/01/13 00:05:27;;;;;;;1.20;1.20;;;;;;;-3.74;89.49;99736.66;4936263;29;20555;-94
2024/01/13 00:07:52;;;;;;;1.20;1.20;;;;;;;-3.85;89.70;99734.66;4935390;29;20044;-91
2024/01/13 00:10:18;;;;;;;1.30;1.30;;;;;;;-3.93;90.18;99740.78;4929780;29;20036;-90
2024/01/13 00:12:44;;;;;;;1.30;1.30;;;;;;;-3.77;90.33;99743.25;4930636;29;20775;-92
2024/01/13 00:15:09;;;;;;;1.30;1.30;;;;;;;-3.76;89.54;99739.88;4916090;29;20038;-90
2024/01/13 00:17:36;;;;;;;1.30;1.30;;;;;;;-3.75;89.60;99724.38;4931521;29;20131;-94
2024/01/13 00:20:04;;;;;;;1.30;1.30;;;;;;;-3.69;89.71;99727.63;4917941;29;20039;-92
2024/01/13 00:22:29;;;;;;;1.20;1.20;;;;;;;-3.59;89.75;99726.88;4934239;29;20042;-92
2024/01/13 00:24:58;;;;;;;1.20;1.20;;;;;;;-3.65;89.37;99718.41;4928257;29;20035;-93
2024/01/13 00:27:24;;;;;;;1.20;1.20;;;;;;;-3.90;89.79;99715.94;4921645;29;20497;-93
2024/01/13 00:29:50;;;;;;;1.20;1.20;;;;;;;-3.91;90.06;99708.91;4918921;29;20124;-92
2024/01/13 00:32:15;;;;;;;1.20;1.20;;;;;;;-4.08;90.38;99710.56;4916052;29;20052;-94
2024/01/13 00:34:41;;;;;;;1.30;1.30;;;;;;;-4.11;91.06;99703.38;4936723;29;20027;-91
2024/01/13 00:37:06;;;;;;;1.30;1.30;;;;;;;-3.98;91.16;99702.91;4916086;29;20046;-91
2024/01/13 00:39:32;;;;;;;1.30;1.30;;;;;;;-3.88;90.53;99701.41;4912133;29;20040;-91
2024/01/13 00:41:57;;;;;;;1.30;1.30;;;;;;;-3.77;90.54;99706.75;4929784;29;20066;-90
2024/01/13 00:44:24;;;;;;;1.30;1.30;;;;;;;-3.76;90.10;99708.59;4930941;29;20113;-92
2024/01/13 00:46:50;;;;;;;1.30;1.30;;;;;;;-3.88;89.86;99703.06;4928706;29;20474;-93
2024/01/13 00:49:15;;;;;;;1.30;1.30;;;;;;;-3.96;90.49;99709.22;4944740;29;20028;-92
2024/01/13 00:51:41;;;;;;;1.20;1.20;;;;;;;-4.04;91.01;99703.22;4939321;29;20055;-91
2024/01/13 00:54:06;;;;;;;1.20;1.20;;;;;;;-3.99;91.21;99701.06;4928416;29;20048;-93
2024/01/13 00:56:33;;;;;;;1.23;1.23;;;;;;;-3.84;91.00;99699.06;4951283;29;20040;-89
2024/01/13 00:58:59;;;;;;;1.30;1.30;;;;;;;-3.71;90.98;99696.94;4940114;29;20059;-91
2024/01/13 01:01:28;;;;;;;1.23;1.23;;;;;;;-3.65;90.39;99698.47;4951720;29;20126;-90
2024/01/13 01:03:53;;;;;;;1.20;1.20;;;;;;;-3.68;90.42;99686.81;4938615;29;20047;-91
2024/01/13 01:06:19;;;;;;;1.20;1.20;;;;;;;-3.64;90.40;99694.16;4925153;29;20051;-92
2024/01/13 01:08:45;;;;;;;1.20;1.20;;;;;;;-3.65;90.04;99694.94;4939350;29;20036;-90
2024/01/13 01:11:11;;;;;;;1.20;1.20;;;;;;;-3.66;90.19;99695.72;4945740;29;20047;-91
2024/01/13 01:13:39;;;;;;;1.20;1.20;;;;;;;-3.79;90.32;99693.56;4941180;29;20489;-91
2024/01/13 01:16:06;;;;;;;1.20;1.20;;;;;;;-3.74;90.50;99683.59;4945266;29;20700;-92
2024/01/13 01:18:35;;;;;;;1.20;1.20;;;;;;;-3.99;91.17;99691.56;4945495;29;20067;-92
2024/01/13 01:21:00;;;;;;;1.20;1.20;;;;;;;-3.89;91.39;99682.97;4940722;29;20292;-92
2024/01/13 01:23:26;;;;;;;1.20;1.20;;;;;;;-3.97;91.48;99683.91;4943754;29;20067;-92
2024/01/13 01:25:51;;;;;;;1.30;1.30;;;;;;;-4.06;91.44;99677.78;4929813;29;20036;-91
2024/01/13 01:28:17;;;;;;;1.20;1.20;;;;;;;-4.07;91.88;99679.47;4941314;29;20487;-92
2024/01/13 01:30:42;;;;;;;1.20;1.20;;;;;;;-3.91;91.66;99669.81;4940175;29;20040;-92
2024/01/13 01:33:09;;;;;;;1.20;1.20;;;;;;;-3.80;91.39;99672.56;4936144;29;20039;-91
2024/01/13 01:35:35;;;;;;;1.20;1.20;;;;;;;-3.76;91.02;99669.50;4945655;29;20032;-92
2024/01/13 01:38:00;;;;;;;1.20;1.20;;;;;;;-3.75;90.90;99660.91;4919727;29;20152;-91
2024/01/13 01:40:30;;;;;;;1.20;1.20;;;;;;;-3.67;90.80;99659.97;4927602;29;20543;-92
2024/01/13 01:42:56;;;;;;;1.20;1.20;;;;;;;-3.61;90.00;99652.75;4921328;29;20040;-92
2024/01/13 01:45:23;;;;;;;1.20;1.20;;;;;;;-3.81;89.71;99656.00;4937225;29;20042;-91
2024/01/13 01:47:51;;;;;;;1.30;1.30;;;;;;;-3.89;90.14;99662.13;4937948;29;20036;-90
2024/01/13 01:50:16;;;;;;;1.30;1.30;;;;;;;-3.92;90.19;99656.63;4953817;29;20038;-92
2024/01/13 01:52:42;;;;;;;1.20;1.20;;;;;;;-3.84;89.66;99654.75;4927915;29;20103;-91
2024/01/13 01:55:08;;;;;;;1.10;1.10;;;;;;;-3.74;89.34;99652.28;4931920;29;20035;-92
2024/01/13 01:57:38;;;;;;;1.30;1.30;;;;;;;-3.76;89.36;99656.44;4917466;29;20040;-93
2024/01/13 02:00:07;;;;;;;1.20;1.20;;;;;;;-3.66;89.15;99654.91;4932230;29;20147;-92
2024/01/13 02:02:37;;;;;;;1.20;1.20;;;;;;;-3.61;89.16;99648.44;4931181;29;20058;-92
2024/01/13 02:05:03;;;;;;;1.20;1.20;;;;;;;-3.44;88.41;99655.34;4932715;29;20067;-92
2024/01/13 02:07:31;;;;;;;1.30;1.30;;;;;;;-3.53;88.77;99659.66;4931877;29;20123;-91
2024/01/13 02:09:56;;;;;;;1.20;1.20;;;;;;;-3.70;89.44;99642.31;4910162;29;20036;-91
2024/01/13 02:12:22;;;;;;;1.20;1.20;;;;;;;-3.58;88.61;99649.53;4931026;29;20112;-89
2024/01/13 02:14:47;;;;;;;1.20;1.20;;;;;;;-3.62;88.70;99645.69;4930183;29;20032;-91
2024/01/13 02:17:13;;;;;;;1.20;1.20;;;;;;;-3.72;88.87;99640.34;4911300;29;20035;-90
2024/01/13 02:19:39;;;;;;;1.40;1.40;;;;;;;-3.86;88.72;99641.59;4932316;29;20404;-91
2024/01/13 02:22:05;;;;;;;1.20;1.20;;;;;;;-4.11;89.49;99643.44;4930155;29;20483;-92
2024/01/13 02:24:31;;;;;;;1.27;1.27;;;;;;;-3.91;89.72;99637.59;4916815;29;20027;-91
2024/01/13 02:26:56;;;;;;;1.20;1.20;;;;;;;-3.93;89.84;99634.84;4920912;29;20036;-92
2024/01/13 02:29:22;;;;;;;1.25;1.25;;;;;;;-4.02;89.24;99633.94;4917642;29;20113;-92
2024/01/13 02:31:47;;;;;;;1.30;1.30;;;;;;;-3.94;89.61;99627.78;4922124;29;20402;-91
2024/01/13 02:34:13;;;;;;;1.20;1.20;;;;;;;-3.88;89.46;99622.25;4939021;29;20067;-91
2024/01/13 02:36:38;;;;;;;1.30;1.30;;;;;;;-3.79;89.79;99615.34;4940117;29;20047;-91
2024/01/13 02:39:04;;;;;;;1.20;1.20;;;;;;;-3.74;88.93;99614.09;4935974;29;20024;-91
2024/01/13 02:41:30;;;;;;;1.20;1.20;;;;;;;-3.79;88.91;99624.84;4920916;29;20043;-91
2024/01/13 02:43:55;;;;;;;1.30;1.30;;;;;;;-3.75;88.56;99621.78;4932743;29;20092;-91
2024/01/13 02:46:23;;;;;;;1.30;1.30;;;;;;;-3.71;88.44;99610.91;4946361;29;20036;-90
2024/01/13 02:48:51;;;;;;;;;;;;;;;-3.65;88.44;99621.91;4950794;29;20106;-91
2024/01/13 02:51:17;;;;;;;1.20;1.20;;;;;;;-3.67;88.12;99605.22;4937920;29;19939;-92
2024/01/13 02:53:43;;;;;;;1.30;1.30;;;;;;;-3.66;88.31;99607.97;4951627;29;20138;-91
2024/01/13 02:56:08;;;;;;;1.25;1.25;;;;;;;-3.51;88.06;99595.50;4956401;29;20036;-91
2024/01/13 02:58:36;;;;;;;1.20;1.20;;;;;;;-3.49;87.45;99588.75;4928302;29;20036;-91
2024/01/13 03:01:06;;;;;;;1.08;1.08;;;;;;;-3.48;87.02;99590.59;4940447;29;20054;-91
2024/01/13 03:03:34;;;;;;;1.20;1.20;;;;;;;-3.62;87.05;99596.16;4942085;29;20040;-92
2024/01/13 03:06:01;;;;;;;1.20;1.20;;;;;;;-3.65;87.16;99606.28;4956506;29;20110;-93
2024/01/13 03:08:26;;;;;;;1.30;1.30;;;;;;;-3.99;88.88;99607.25;4925356;29;20061;-92
2024/01/13 03:10:52;;;;;;;1.20;1.20;;;;;;;-3.92;88.46;99597.59;4928858;29;20032;-92
2024/01/13 03:13:17;;;;;;;1.30;1.30;;;;;;;-3.94;88.77;99593.91;4943063;29;20032;-92
2024/01/13 03:15:44;;;;;;;1.20;1.20;;;;;;;-3.89;88.50;99590.06;4960595;29;20035;-92
2024/01/13 03:18:09;;;;;;;1.30;1.30;;;;;;;-3.82;87.86;99585.47;4924984;29;20040;-92
2024/01/13 03:20:41;;;;;;;1.30;1.30;;;;;;;-3.96;88.15;99586.72;4948109;29;20051;-92
2024/01/13 03:23:10;;;;;;;1.20;1.20;;;;;;;-3.93;88.44;99587.00;4955765;29;20054;-91
2024/01/13 03:25:36;;;;;;;1.20;1.20;;;;;;;-4.03;88.52;99590.38;4954124;29;20055;-92
2024/01/13 03:28:04;;;;;;;1.20;1.20;;;;;;;-4.03;88.39;99587.78;4944234;29;20032;-92
2024/01/13 03:30:29;;;;;;;1.20;1.20;;;;;;;-4.12;88.85;99589.47;4945721;29;20020;-92
2024/01/13 03:32:58;;;;;;;1.20;1.20;;;;;;;-4.09;88.72;99584.56;4929414;29;20113;-92
2024/01/13 03:35:23;;;;;;;1.27;1.27;;;;;;;-4.15;89.00;99582.28;4938724;29;20128;-93
2024/01/13 03:37:49;;;;;;;1.20;1.20;;;;;;;-4.05;89.05;99593.63;4939281;29;20043;-92
2024/01/13 03:40:15;;;;;;;1.30;1.30;;;;;;;-3.87;88.66;99578.13;4937103;29;20044;-92
2024/01/13 03:42:41;;;;;;;1.30;1.30;;;;;;;-3.88;88.48;99589.31;4950182;29;20047;-92
2024/01/13 03:45:07;;;;;;;1.20;1.20;;;;;;;-4.27;89.71;99585.34;4949292;29;20035;-93
2024/01/13 03:47:32;;;;;;;1.20;1.20;;;;;;;-4.03;89.23;99584.25;4929885;29;20039;-92
2024/01/13 03:49:58;;;;;;;1.10;1.10;;;;;;;-4.04;88.94;99598.97;4946252;29;20028;-93
2024/01/13 03:52:23;;;;;;;1.20;1.20;;;;;;;-3.98;88.92;99589.16;4934284;29;20031;-91
2024/01/13 03:54:49;;;;;;;1.20;1.20;;;;;;;-3.94;88.04;99585.16;4930421;29;20036;-92
2024/01/13 03:57:15;;;;;;;1.30;1.30;;;;;;;-4.17;88.55;99583.81;4931467;29;20044;-92
2024/01/13 03:59:40;;;;;;;1.20;1.20;;;;;;;-4.22;88.67;99582.41;4921603;29;20043;-93
2024/01/13 04:02:06;;;;;;;1.20;1.20;;;;;;;-4.03;88.18;99569.53;4932292;29;20059;-92
2024/01/13 04:04:31;;;;;;;1.30;1.30;;;;;;;-3.98;87.75;99562.16;4935972;29;20043;-91
2024/01/13 04:06:57;;;;;;;1.30;1.30;;;;;;;-4.09;87.41;99563.72;4915738;29;20626;-91
2024/01/13 04:09:23;;;;;;;1.30;1.30;;;;;;;-4.00;87.57;99556.81;4931545;29;20039;-92
2024/01/13 04:11:49;;;;;;;1.30;1.30;;;;;;;-3.98;87.70;99556.97;4932642;29;20036;-91
2024/01/13 04:14:14;;;;;;;1.30;1.30;;;;;;;-4.09;88.02;99557.59;4929049;29;20047;-91
2024/01/13 04:16:43;;;;;;;1.20;1.20;;;;;;;-3.98;88.19;99543.91;4930799;29;20446;-92
2024/01/13 04:19:08;;;;;;;1.20;1.20;;;;;;;-4.07;87.57;99540.41;4925686;29;20028;-92
2024/01/13 04:21:35;;;;;;;1.20;1.20;;;;;;;-4.16;87.88;99537.84;4929663;29;20398;-91
2024/01/13 04:24:00;;;;;;;1.20;1.20;;;;;;;-4.18;88.44;99532.47;4935521;29;20122;-93
2024/01/13 04:26:26;;;;;;;1.30;1.30;;;;;;;-4.17;88.37;99534.31;4934761;29;20131;-93
2024/01/13 04:28:51;;;;;;;1.30;1.30;;;;;;;-4.26;88.51;99540.31;4928302;29;20039;-92
2024/01/13 04:31:17;;;;;;;1.20;1.20;;;;;;;-4.28;89.04;99531.41;4917977;29;20453;-92
2024/01/13 04:33:42;;;;;;;1.13;1.13;;;;;;;-4.21;89.00;99526.06;4943043;29;20035;-91
2024/01/13 04:36:08;;;;;;;1.30;1.30;;;;;;;-3.97;88.01;99531.06;4930774;29;20474;-91
2024/01/13 04:38:37;;;;;;;;;;;;;;;-4.02;88.09;99534.91;4916499;29;20069;-90
2024/01/13 04:41:03;;;;;;;1.30;1.30;;;;;;;-4.05;88.50;99528.47;4919701;29;19915;-91
2024/01/13 04:43:29;;;;;;;1.30;1.30;;;;;;;-4.14;88.19;99521.56;4930944;29;20072;-90
2024/01/13 04:45:54;;;;;;;1.20;1.20;;;;;;;-4.14;88.45;99512.84;4916034;29;20117;-91
2024/01/13 04:48:21;;;;;;;1.23;1.23;;;;;;;-4.36;88.62;99508.88;4944428;29;20019;-90
2024/01/13 04:50:47;;;;;;;1.23;1.23;;;;;;;-4.31;88.88;99510.25;4918629;29;20106;-90
2024/01/13 04:53:12;;;;;;;1.30;1.30;;;;;;;-4.29;89.12;99519.16;4944917;29;20036;-92
2024/01/13 04:55:38;;;;;;;1.20;1.20;;;;;;;-4.20;88.67;99509.66;4914124;29;20043;-92
2024/01/13 04:58:03;;;;;;;1.20;1.20;;;;;;;-4.23;88.38;99512.84;4935954;29;20066;-91
2024/01/13 05:00:32;;;;;;;1.20;1.20;;;;;;;-4.34;88.61;99504.75;4950151;29;20039;-92
2024/01/13 05:02:58;;;;;;;1.20;1.20;;;;;;;-4.35;89.26;99508.13;4923070;29;20024;-92
2024/01/13 05:05:23;;;;;;;1.20;1.20;;;;;;;-4.36;89.00;99512.41;4940645;29;20413;-92
2024/01/13 05:07:49;;;;;;;1.30;1.30;;;;;;;-4.42;89.00;99504.91;4951075;28;20043;-91
2024/01/13 05:10:14;;;;;;;1.30;1.30;;;;;;;-4.38;88.90;99513.94;4930949;28;20035;-90
2024/01/13 05:12:40;;;;;;;1.33;1.33;;;;;;;-4.07;88.25;99520.50;4929163;29;20043;-92
2024/01/13 05:15:07;;;;;;;1.30;1.30;;;;;;;-4.09;87.48;99515.91;4933773;29;20031;-93
2024/01/13 05:17:33;;;;;;;1.20;1.20;;;;;;;-4.17;87.49;99505.66;4915181;29;20035;-94
2024/01/13 05:19:58;;;;;;;1.20;1.20;;;;;;;-4.15;87.77;99503.19;4932372;29;20051;-93
2024/01/13 05:22:24;;;;;;;1.20;1.20;;;;;;;-4.09;87.27;99503.78;4928679;29;20028;-93
2024/01/13 05:24:50;;;;;;;1.25;1.25;;;;;;;-4.00;87.43;99504.69;4934052;29;20392;-93
2024/01/13 05:27:15;;;;;;;1.30;1.30;;;;;;;-4.02;87.61;99500.13;4929356;29;20027;-93
2024/01/13 05:29:41;;;;;;;1.20;1.20;;;;;;;-4.00;87.27;99498.56;4931592;29;20032;-93
2024/01/13 05:32:07;;;;;;;1.20;1.20;;;;;;;-3.99;87.08;99495.19;4931789;29;20040;-91
2024/01/13 05:34:33;;;;;;;1.20;1.20;;;;;;;-4.03;87.46;99490.44;4933767;29;20440;-92
2024/01/13 05:36:59;;;;;;;1.20;1.20;;;;;;;-3.97;87.42;99496.28;4944378;29;20039;-94
2024/01/13 05:39:24;;;;;;;1.10;1.10;;;;;;;-4.00;87.67;99494.28;4936938;29;20020;-92
2024/01/13 05:41:53;;;;;;;1.20;1.20;;;;;;;-4.11;88.06;99500.13;4922194;29;20040;-92
2024/01/13 05:44:18;;;;;;;1.20;1.20;;;;;;;-4.00;88.12;99499.47;4944781;29;20086;-94
2024/01/13 05:46:44;;;;;;;1.30;1.30;;;;;;;-4.03;87.90;99507.00;4920546;29;20401;-91
2024/01/13 05:49:10;;;;;;;1.30;1.30;;;;;;;-3.98;87.23;99505.75;4909048;29;20031;-92
2024/01/13 05:51:36;;;;;;;1.20;1.20;;;;;;;-4.06;87.94;99511.91;4925413;29;20039;-92
2024/01/13 05:54:02;;;;;;;1.20;1.20;;;;;;;-4.01;87.69;99510.69;4936531;29;20652;-91
2024/01/13 05:56:30;;;;;;;1.20;1.20;;;;;;;-4.04;87.76;99507.75;4920513;29;20050;-92
2024/01/13 05:58:55;;;;;;;1.30;1.30;;;;;;;-4.01;87.40;99505.47;4935256;29;20036;-92
2024/01/13 06:01:24;;;;;;;1.20;1.20;;;;;;;-4.09;88.01;99500.28;4949188;29;20042;-92
2024/01/13 06:03:50;;;;;;;1.20;1.20;;;;;;;-4.16;88.18;99519.59;4930309;29;20086;-93
2024/01/13 06:06:17;;;;;;;1.20;1.20;;;;;;;-4.13;88.19;99510.38;4929536;29;20043;-92
2024/01/13 06:08:51;;;;;;;1.20;1.20;;;;;;;-4.05;88.41;99505.03;4937599;29;20190;-92
2024/01/13 06:11:16;;;;;;;1.20;1.20;;;;;;;-4.09;88.08;99501.19;4934500;29;20047;-92
2024/01/13 06:13:43;;;;;;;1.20;1.20;;;;;;;-3.99;88.30;99497.78;4933047;29;20036;-92
2024/01/13 06:16:09;;;;;;;1.23;1.23;;;;;;;-3.98;88.26;99500.53;4935234;29;20136;-91
2024/01/13 06:18:35;;;;;;;1.10;1.10;;;;;;;-4.17;88.67;99496.91;4934879;29;20058;-91
2024/01/13 06:21:01;;;;;;;1.30;1.30;;;;;;;-4.13;88.82;99489.53;4929729;29;20032;-91
2024/01/13 06:23:27;;;;;;;1.30;1.30;;;;;;;-4.01;88.39;99492.44;4934184;29;20032;-91
2024/01/13 06:25:53;;;;;;;1.30;1.30;;;;;;;-4.08;88.19;99486.47;4936076;29;20098;-91
2024/01/13 06:28:18;;;;;;;1.30;1.30;;;;;;;-4.16;88.86;99484.03;4932188;29;20146;-92
2024/01/13 06:30:44;;;;;;;1.20;1.20;;;;;;;-4.06;88.43;99488.47;4934264;29;20039;-91
2024/01/13 06:33:09;;;;;;;1.30;1.30;;;;;;;-4.08;88.89;99484.78;4934216;29;21559;-91
2024/01/13 06:35:35;;;;;;;1.20;1.20;;;;;;;-3.99;88.96;99483.06;4936005;29;20041;-91
2024/01/13 06:38:00;;;;;;;1.20;1.20;;;;;;;-4.05;88.61;99477.25;4936469;29;20031;-92
2024/01/13 06:40:27;;;;;;;1.20;1.20;;;;;;;-4.25;89.16;99483.13;4936358;29;20047;-93
2024/01/13 06:42:54;;;;;;;1.30;1.30;;;;;;;-4.17;89.28;99476.06;4931238;29;20046;-92
2024/01/13 06:45:19;;;;;;;1.25;1.25;;;;;;;-4.37;89.75;99479.31;4917685;29;20058;-92
2024/01/13 06:47:45;;;;;;;1.20;1.20;;;;;;;-4.33;89.88;99477.94;4933256;29;20044;-93
2024/01/13 06:50:10;;;;;;;1.20;1.20;;;;;;;-4.22;89.98;99474.69;4933024;29;20068;-93
2024/01/13 06:52:37;;;;;;;1.20;1.20;;;;;;;-4.26;89.04;99475.19;4933658;29;20071;-93
2024/01/13 06:55:06;;;;;;;1.20;1.20;;;;;;;-4.33;89.39;99473.66;4928473;29;20032;-93
2024/01/13 06:57:32;;;;;;;1.27;1.27;;;;;;;-4.36;89.37;99472.41;4933066;29;20059;-93
2024/01/13 07:00:07;;;;;;;1.30;1.30;;;;;;;-4.42;89.72;99468.44;4935065;29;20040;-93
2024/01/13 07:02:36;;;;;;;1.10;1.10;;;;;;;-4.40;89.74;99474.75;4934876;29;20553;-91
2024/01/13 07:05:04;;;;;;;1.30;1.30;;;;;;;-4.40;90.09;99473.81;4918990;29;20028;-92
2024/01/13 07:07:31;;;;;;;1.10;1.10;;;;;;;-4.34;89.79;99461.41;4919659;29;20491;-92
2024/01/13 07:10:06;;;;;;;1.23;1.23;;;;;;;-4.35;89.66;99476.88;4922028;29;20091;-93
2024/01/13 07:12:33;;;;;;;1.20;1.20;;;;;;;-4.19;89.35;99467.19;4935588;29;20561;-94
2024/01/13 07:14:58;;;;;;;1.30;1.30;;;;;;;-4.14;88.80;99466.88;4934442;29;20035;-92
2024/01/13 07:17:27;;;;;;;1.25;1.25;;;;;;;-4.13;88.68;99467.78;4936397;29;20115;-91
2024/01/13 07:19:52;;;;;;;1.20;1.20;;;;;;;-4.54;88.95;99471.53;4932917;29;20098;-92
2024/01/13 07:22:18;;;;;;;1.20;1.20;;;;;;;-4.46;88.88;99455.88;4937007;29;20055;-94
2024/01/13 07:24:44;;;;;;;1.20;1.20;;;;;;;-4.38;88.97;99454.03;4916709;29;20063;-92
2024/01/13 07:27:16;;;;;;;1.20;1.20;;;;;;;-4.27;88.59;99452.47;4933722;29;20092;-92
2024/01/13 07:29:45;;;;;;;1.30;1.30;;;;;;;-4.31;88.78;99452.94;4924592;29;20059;-93
2024/01/13 07:32:20;;;;;;;;;;;;;;;;;;;;;
2024/01/13 07:34:46;;;;;;;1.30;1.30;;;;;;;-4.28;88.96;99433.34;4934807;29;20051;-92
2024/01/13 07:37:12;;;;;;;1.20;1.20;;;;;;;-4.06;88.45;99441.56;4938748;29;20040;-92
2024/01/13 07:39:41;;;;;;;1.20;1.20;;;;;;;-4.11;88.61;99437.59;4905365;29;20052;-91
2024/01/13 07:42:10;;;;;;;1.20;1.20;;;;;;;-4.29;89.78;99434.13;4925498;29;20043;-92
2024/01/13 07:44:36;;;;;;;1.30;1.30;;;;;;;-4.34;89.95;99429.22;4934610;29;20035;-92
2024/01/13 07:47:03;;;;;;;1.20;1.20;;;;;;;-4.25;89.73;99427.53;4941013;29;20070;-94
2024/01/13 07:49:36;;;;;;;1.20;1.20;;;;;;;-4.31;89.19;99434.72;4943116;29;20036;-93
2024/01/13 07:52:02;;;;;;;1.10;1.10;;;;;;;-4.38;89.54;99436.72;4925157;29;20047;-92
2024/01/13 07:54:33;;;;;;;1.20;1.20;;;;;;;-4.42;90.19;99431.97;4908070;29;20044;-91
2024/01/13 07:57:00;;;;;;;1.20;1.20;;;;;;;-4.46;88.98;99435.06;4929818;29;20035;-92
2024/01/13 07:59:26;;;;;;;1.20;1.20;;;;;;;-4.33;88.85;99434.56;4944219;29;20119;-91
2024/01/13 08:01:51;;;;;;;1.10;1.10;;;;;;;-4.47;89.32;99441.03;4946460;29;20398;-91
2024/01/13 08:04:22;;;;;;;1.20;1.20;;;;;;;-4.45;89.48;99443.81;4939103;29;20036;-92
2024/01/13 08:06:48;;;;;;;1.20;1.20;;;;;;;-4.44;89.15;99448.25;4945193;29;20039;-92
2024/01/13 08:09:13;;;;;;;1.30;1.30;;;;;;;-4.33;89.19;99442.38;4935996;29;20039;-93
2024/01/13 08:11:40;;;;;;;1.20;1.20;;;;;;;-4.25;89.14;99446.66;4922178;29;20111;-90
2024/01/13 08:14:05;;;;;;;1.20;1.20;;;;;;;-4.24;89.12;99447.59;4919780;29;20036;-90
2024/01/13 08:16:31;;;;;;;1.30;1.30;;;;;;;-4.16;88.69;99446.66;4931475;29;20031;-92
2024/01/13 08:19:00;;;;;;;1.30;1.30;;;;;;;-4.09;88.27;99449.06;4934676;29;20036;-91
2024/01/13 08:21:26;;;;;;;1.20;1.20;;;;;;;-3.88;87.54;99451.16;4913391;29;20201;-90
2024/01/13 08:23:52;;;;;;;1.20;1.20;;;;;;;-3.91;86.87;99452.56;4932439;29;20043;-92
2024/01/13 08:26:18;;;;;;;1.30;1.30;;;;;;;-4.00;87.22;99454.25;4918903;29;20439;-89
2024/01/13 08:28:43;;;;;;;1.20;1.20;;;;;;;-3.86;87.53;99453.91;4932466;29;20165;-90
2024/01/13 08:31:12;;;;;;;1.30;1.30;;;;;;;-3.89;87.42;99449.31;4912751;29;20051;-92
2024/01/13 08:33:38;;;;;;;1.30;1.30;;;;;;;-3.94;87.27;99450.53;4947768;29;20042;-92
2024/01/13 08:36:04;;;;;;;1.30;1.30;;;;;;;-3.99;87.26;99451.78;4943122;29;20035;-92
2024/01/13 08:38:30;;;;;;;1.30;1.30;;;;;;;-3.95;87.58;99447.81;4944055;29;20106;-92
2024/01/13 08:40:55;;;;;;;1.20;1.20;;;;;;;-3.88;87.47;99443.34;4942185;29;20059;-92
2024/01/13 08:43:20;;;;;;;1.20;1.20;;;;;;;-3.84;87.57;99446.22;4933927;29;20050;-93
2024/01/13 08:45:47;;;;;;;1.20;1.20;;;;;;;-3.64;86.51;99444.78;4946182;29;20046;-93
2024/01/13 08:48:13;;;;;;;1.33;1.33;;;;;;;-3.63;86.23;99451.81;4947375;29;20036;-93
2024/01/13 08:50:39;;;;;;;1.20;1.20;;;;;;;-3.59;86.00;99459.91;4925746;29;20044;-92
2024/01/13 08:53:05;;;;;;;1.20;1.20;;;;;;;-3.52;85.02;99464.94;4947158;29;20430;-93
2024/01/13 08:55:31;;;;;;;1.30;1.30;;;;;;;-3.61;85.12;99471.13;4939233;29;20035;-92
2024/01/13 08:57:57;;;;;;;1.30;1.30;;;;;;;-3.66;84.48;99464.53;4936613;29;20040;-92
2024/01/13 09:00:23;;;;;;;1.40;1.40;;;;;;;-3.67;84.98;99467.94;4932941;29;20447;-91
2024/01/13 09:02:48;;;;;;;1.30;1.30;;;;;;;-3.62;84.87;99473.59;4925733;29;20070;-90
2024/01/13 09:05:14;;;;;;;1.30;1.30;;;;;;;-3.56;83.89;99468.94;4926701;29;20031;-91
2024/01/13 09:07:40;;;;;;;1.20;1.20;;;;;;;-3.57;83.82;99463.59;4920408;29;20036;-91
2024/01/13 09:10:06;;;;;;;1.20;1.20;;;;;;;-3.53;83.78;99447.47;4937190;29;20439;-90
2024/01/13 09:12:33;;;;;;;1.23;1.23;;;;;;;-3.51;83.59;99454.66;4935684;29;20434;-90
2024/01/13 09:14:58;;;;;;;1.30;1.30;;;;;;;-3.52;83.41;99449.31;4922232;29;20036;-90
2024/01/13 09:17:24;;;;;;;1.30;1.30;;;;;;;-3.58;84.01;99439.22;4916204;29;20044;-91
2024/01/13 09:19:49;;;;;;;1.20;1.20;;;;;;;-3.56;84.18;99437.66;4933020;29;20043;-91
2024/01/13 09:22:15;;;;;;;1.20;1.20;;;;;;;-3.60;84.06;99435.53;4916718;29;20043;-90
2024/01/13 09:24:41;;;;;;;1.20;1.20;;;;;;;-3.49;84.04;99447.00;4917091;29;20036;-90
2024/01/13 09:27:06;;;;;;;1.20;1.20;;;;;;;-3.40;83.25;99459.22;4913053;29;20036;-91
2024/01/13 09:29:32;;;;;;;1.20;1.20;;;;;;;-3.25;82.95;99459.75;4938112;29;20071;-92
2024/01/13 09:31:57;;;;;;;1.20;1.20;;;;;;;-3.46;82.60;99473.34;4931850;29;20046;-92
2024/01/13 09:34:24;;;;;;;1.23;1.23;;;;;;;-3.38;82.71;99473.31;4918901;29;20463;-92
2024/01/13 09:36:51;;;;;;;1.30;1.30;;;;;;;-3.31;82.40;99473.88;4933430;29;20039;-94
2024/01/13 09:39:17;;;;;;;1.20;1.20;;;;;;;-3.44;82.98;99464.00;4919706;29;20114;-93
2024/01/13 09:41:49;;;;;;;1.23;1.23;;;;;;;-3.29;82.74;99457.63;4936196;29;20043;-93
2024/01/13 09:44:22;;;;;;;1.20;1.20;;;;;;;-3.39;82.35;99453.22;4933389;29;20078;-93
2024/01/13 09:46:53;;;;;;;1.20;1.20;;;;;;;-3.48;82.38;99449.75;4929103;29;20071;-94
2024/01/13 09:49:26;;;;;;;1.30;1.30;;;;;;;-3.51;82.67;99427.66;4954732;28;20542;-93
2024/01/13 09:51:54;;;;;;;1.30;1.30;;;;;;;-3.43;82.62;99422.41;4934672;29;20123;-93
2024/01/13 09:54:28;;;;;;;1.30;1.30;;;;;;;-3.37;82.48;99425.56;4921704;29;20028;-93
2024/01/13 09:56:57;;;;;;;1.20;1.20;;;;;;;-3.19;81.37;99430.69;4937944;29;20734;-94
2024/01/13 09:59:28;;;;;;;1.20;1.20;;;;;;;-3.23;81.00;99424.25;4941775;29;20039;-90
2024/01/13 10:01:54;;;;;;;1.30;1.30;;;;;;;-3.38;81.48;99408.09;4929396;29;20134;-93
2024/01/13 10:04:20;;;;;;;1.20;1.20;;;;;;;-3.23;80.85;99410.31;4923322;29;20039;-94
2024/01/13 10:06:48;;;;;;;1.30;1.30;;;;;;;-3.38;81.44;99415.91;4948855;29;20075;-95
2024/01/13 10:09:14;;;;;;;1.30;1.30;;;;;;;-3.27;81.13;99413.41;4929600;29;20474;-93
2024/01/13 10:11:43;;;;;;;1.20;1.20;;;;;;;-3.16;81.21;99413.63;4954529;29;20056;-93
2024/01/13 10:14:14;;;;;;;1.20;1.20;;;;;;;-3.11;81.23;99407.16;4958992;29;20051;-94
2024/01/13 10:16:46;;;;;;;1.20;1.20;;;;;;;-3.15;81.21;99401.50;4958953;29;20015;-94
2024/01/13 10:19:16;;;;;;;1.30;1.30;;;;;;;-3.21;80.25;99403.53;4941958;29;20047;-95
2024/01/13 10:21:42;;;;;;;1.20;1.20;;;;;;;-3.31;80.54;99406.06;4947679;29;20127;-94
2024/01/13 10:24:08;;;;;;;1.30;1.30;;;;;;;-3.31;80.69;99404.34;4947214;29;20099;-95
2024/01/13 10:26:35;;;;;;;1.20;1.20;;;;;;;-3.14;79.89;99403.34;4935677;29;20042;-93
2024/01/13 10:29:00;;;;;;;1.30;1.30;;;;;;;-3.23;79.58;99410.31;4933602;29;20072;-94
2024/01/13 10:31:30;;;;;;;1.20;1.20;;;;;;;-3.37;80.89;99403.78;4947965;29;20048;-94
2024/01/13 10:33:58;;;;;;;1.10;1.10;;;;;;;-3.29;81.11;99404.53;4961921;29;20035;-93
2024/01/13 10:36:24;;;;;;;;;;;;;;;-3.30;81.09;99414.03;4940708;29;20038;-92
2024/01/13 10:38:54;;;;;;;1.20;1.20;;;;;;;-3.28;81.23;99403.75;4941465;29;20009;-91
2024/01/13 10:41:25;;;;;;;1.30;1.30;;;;;;;-3.29;81.61;99383.66;4932516;29;20057;-93
2024/01/13 10:43:55;;;;;;;1.30;1.30;;;;;;;-3.11;80.23;99364.47;4942336;29;20051;-93
2024/01/13 10:46:36;;;;;;;1.30;1.30;;;;;;;-3.21;80.55;99353.94;4961453;28;20048;-93
2024/01/13 10:49:13;;;;;;;1.20;1.20;;;;;;;-3.07;80.50;99348.31;4939226;29;20027;-94
2024/01/13 10:51:52;;;;;;;1.30;1.30;;;;;;;-3.16;80.58;99342.28;4925405;29;20139;-93
2024/01/13 10:54:19;;;;;;;1.23;1.23;;;;;;;-3.15;79.89;99342.41;4925988;29;20035;-93
2024/01/13 10:56:46;;;;;;;1.30;1.30;;;;;;;-3.12;79.76;99341.75;4940254;29;20039;-93
2024/01/13 10:59:16;;;;;;;1.30;1.30;;;;;;;-3.07;79.57;99340.47;4908252;29;20055;-92
2024/01/13 11:01:44;;;;;;;1.27;1.27;;;;;;;-3.05;79.99;99333.72;4930634;29;20031;-92
2024/01/13 11:04:11;;;;;;;1.20;1.20;;;;;;;-3.04;80.34;99318.97;4922270;29;20079;-93
2024/01/13 11:06:38;;;;;;;1.30;1.30;;;;;;;-2.95;79.93;99323.31;4929913;29;20359;-92
2024/01/13 11:09:07;;;;;;;1.20;1.20;;;;;;;-2.93;80.02;99334.81;4907623;29;20167;-94
2024/01/13 11:11:42;;;;;;;1.30;1.30;;;;;;;-2.85;79.67;99333.81;4934048;29;20071;-93
2024/01/13 11:14:14;;;;;;;1.20;1.20;;;;;;;-2.88;80.32;99332.63;4933465;29;20406;-92
2024/01/13 11:16:44;;;;;;;1.20;1.20;;;;;;;-2.98;80.16;99341.31;4919105;29;20047;-93
2024/01/13 11:19:10;;;;;;;1.20;1.20;;;;;;;-3.00;80.75;99336.75;4924563;29;20036;-93
2024/01/13 11:21:36;;;;;;;1.30;1.30;;;;;;;-2.82;80.14;99319.22;4929905;29;20110;-93
2024/01/13 11:24:13;;;;;;;1.30;1.30;;;;;;;-2.71;79.99;99310.66;4919608;29;20027;-92
2024/01/13 11:26:46;;;;;;;1.23;1.23;;;;;;;-2.71;80.18;99292.38;4923063;29;20036;-92
2024/01/13 11:29:30;;;;;;;1.13;1.13;;;;;;;-2.93;80.31;99274.78;4920969;29;20020;-92
2024/01/13 11:32:02;;;;;;;1.30;1.30;;;;;;;-2.93;79.89;99250.38;4935683;29;20167;-94
2024/01/13 11:34:28;;;;;;;1.30;1.30;;;;;;;-2.79;78.88;99225.50;4937231;29;20107;-94